Celebrity Century — 9HJI9 — position and weather

sailwx.info

Track history (hours):
 
Tides and Currents Weather Stations Pressure Air Temp Water Temp Dewpoint Dewpoint Depression Visibility Wind Speed Wind Dir Waves Ship Positions

Celebrity Century

Last reported at 2018-Jun-22 12:55 UTC. Time now 2018-Jun-22 18:40 UTC.
Position N 31°12' E 122°09'.

Length 251 m; draft 8 m.

Type: Ship. MMSI: 249054000.

Date/timePositionNaut miles runAvg speedWind from/ knotsBaromVisibWave heightAir tempDewpointWater temp
2018-Jun-22 12:55N 31°12' E 122°09'614.5
2018-Jun-22 12:29N 31°14' E 122°02'714.1
2018-Jun-22 12:01N 31°16' E 121°55'713.7
2018-Jun-22 11:30N 31°18' E 121°47'6 0.5
2018-Jun-21 22:26N 31°21' E 121°41'4 8.1
2018-Jun-21 21:59N 31°19' E 121°44'611.0
2018-Jun-21 21:28N 31°17' E 121°51'611.7
2018-Jun-21 20:59N 31°15' E 121°57'611.4
2018-Jun-21 20:30N 31°14' E 122°03'510.6
2018-Jun-21 20:00N 31°12' E 122°09'510.7
2018-Jun-21 19:30N 31°09' E 122°14'5 9.9
2018-Jun-21 19:00N 31°06' E 122°19'5 9.7
2018-Jun-21 18:30N 31°07' E 122°24'611.4
2018-Jun-21 17:58N 31°08' E 122°32'714.9
2018-Jun-21 17:30N 31°07' E 122°40'1013.6
2018-Jun-21 16:44N 31°09' E 122°51'514.9
2018-Jun-21 16:23N 31°11' E 122°57'614.7
2018-Jun-21 15:59N 31°15' E 123°03'914.8
2018-Jun-21 15:24N 31°17' E 123°12'814.6
2018-Jun-21 14:52N 31°20' E 123°21'615.2
2018-Jun-21 14:30N 31°21' E 123°27'715.1
2018-Jun-21 14:00N 31°25' E 123°35'814.8
2018-Jun-21 13:27N 31°27' E 123°44'814.6
2018-Jun-21 12:56N 31°30' E 123°53'  
2018-Jun-17 10:40N 31°11' E 122°11'313.8
2018-Jun-17 10:25N 31°13' E 122°08'814.2
2018-Jun-17 09:53N 31°15' E 121°59'614.6
2018-Jun-17 09:31N 31°16' E 121°53'714.8
2018-Jun-17 09:00N 31°19' E 121°45'1 0.1
2018-Jun-16 17:19N 31°19' E 121°44'411.5
2018-Jun-16 17:01N 31°18' E 121°47'612.1
2018-Jun-16 16:31N 31°16' E 121°54'612.0
2018-Jun-16 16:01N 31°15' E 122°01'611.7
2018-Jun-16 15:30N 31°13' E 122°08'612.1
2018-Jun-16 15:00N 31°09' E 122°13'612.3
2018-Jun-16 14:30N 31°06' E 122°20'712.8
2018-Jun-16 14:00N 31°07' E 122°27'611.8
2018-Jun-16 13:30N 31°07' E 122°34'2613.9
2018-Jun-16 11:39N 31°07' E 123°04'515.1
2018-Jun-16 11:20N 31°07' E 123°10'  
2018-Jun-13 11:07N 31°05' E 122°24'1 8.1
2018-Jun-13 10:57N 31°06' E 122°22'5 8.8
2018-Jun-13 10:26N 31°07' E 122°17'714.5
2018-Jun-13 09:59N 31°10' E 122°11'714.6
2018-Jun-13 09:29N 31°14' E 122°04'714.9
2018-Jun-13 09:00N 31°15' E 121°55'814.7
2018-Jun-13 08:28N 31°18' E 121°47'10 1.0
2018-Jun-12 22:22N 31°23' E 121°36'411.8
2018-Jun-12 22:00N 31°21' E 121°40'713.1
2018-Jun-12 21:30N 31°18' E 121°47'713.4
2018-Jun-12 20:58N 31°16' E 121°55'612.3
2018-Jun-12 20:30N 31°15' E 122°02'611.8
2018-Jun-12 20:00N 31°12' E 122°08'612.5
2018-Jun-12 19:30N 31°09' E 122°14'611.0
2018-Jun-12 19:00N 31°06' E 122°20'611.7
2018-Jun-12 18:28N 31°07' E 122°27'4 7.7
2018-Jun-12 17:59N 31°07' E 122°31'612.3
2018-Jun-12 17:30N 31°07' E 122°38'612.4
2018-Jun-12 17:00N 31°07' E 122°46'612.1
2018-Jun-12 16:30N 31°07' E 122°53'612.2
2018-Jun-12 15:59N 31°06' E 123°00'611.9
2018-Jun-12 15:30N 31°05' E 123°06'611.3
2018-Jun-12 15:00N 31°02' E 123°12'712.2
2018-Jun-12 14:25N 30°59' E 123°19'1012.7
2018-Jun-12 13:39N 30°52' E 123°28'  
Track history (hours):
 
Tides and Currents Weather Stations Pressure Air Temp Water Temp Dewpoint Dewpoint Depression Visibility Wind Speed Wind Dir Waves Ship Positions

Celebrity Century

Last reported at 2018-Jun-22 12:55 UTC. Time now 2018-Jun-22 18:40 UTC.
Position N 31°12' E 122°09'.

Length 251 m; draft 8 m.

Type: Ship. MMSI: 249054000.

Date/timePositionNaut miles runAvg speedWind from/ knotsBaromVisibWave heightAir tempDewpointWater temp
2018-Jun-22 12:55N 31°12' E 122°09'614.5
2018-Jun-22 12:29N 31°14' E 122°02'714.1
2018-Jun-22 12:01N 31°16' E 121°55'713.7
2018-Jun-22 11:30N 31°18' E 121°47'6 0.5
2018-Jun-21 22:26N 31°21' E 121°41'4 8.1
2018-Jun-21 21:59N 31°19' E 121°44'611.0
2018-Jun-21 21:28N 31°17' E 121°51'611.7
2018-Jun-21 20:59N 31°15' E 121°57'611.4
2018-Jun-21 20:30N 31°14' E 122°03'510.6
2018-Jun-21 20:00N 31°12' E 122°09'510.7
2018-Jun-21 19:30N 31°09' E 122°14'5 9.9
2018-Jun-21 19:00N 31°06' E 122°19'5 9.7
2018-Jun-21 18:30N 31°07' E 122°24'611.4
2018-Jun-21 17:58N 31°08' E 122°32'714.9
2018-Jun-21 17:30N 31°07' E 122°40'1013.6
2018-Jun-21 16:44N 31°09' E 122°51'514.9
2018-Jun-21 16:23N 31°11' E 122°57'614.7
2018-Jun-21 15:59N 31°15' E 123°03'914.8
2018-Jun-21 15:24N 31°17' E 123°12'814.6
2018-Jun-21 14:52N 31°20' E 123°21'615.2
2018-Jun-21 14:30N 31°21' E 123°27'715.1
2018-Jun-21 14:00N 31°25' E 123°35'814.8
2018-Jun-21 13:27N 31°27' E 123°44'814.6
2018-Jun-21 12:56N 31°30' E 123°53'  
2018-Jun-17 10:40N 31°11' E 122°11'313.8
2018-Jun-17 10:25N 31°13' E 122°08'814.2
2018-Jun-17 09:53N 31°15' E 121°59'614.6
2018-Jun-17 09:31N 31°16' E 121°53'714.8
2018-Jun-17 09:00N 31°19' E 121°45'1 0.1
2018-Jun-16 17:19N 31°19' E 121°44'411.5
2018-Jun-16 17:01N 31°18' E 121°47'612.1
2018-Jun-16 16:31N 31°16' E 121°54'612.0
2018-Jun-16 16:01N 31°15' E 122°01'611.7
2018-Jun-16 15:30N 31°13' E 122°08'612.1
2018-Jun-16 15:00N 31°09' E 122°13'612.3
2018-Jun-16 14:30N 31°06' E 122°20'712.8
2018-Jun-16 14:00N 31°07' E 122°27'611.8
2018-Jun-16 13:30N 31°07' E 122°34'2613.9
2018-Jun-16 11:39N 31°07' E 123°04'515.1
2018-Jun-16 11:20N 31°07' E 123°10'  
2018-Jun-13 11:07N 31°05' E 122°24'1 8.1
2018-Jun-13 10:57N 31°06' E 122°22'5 8.8
2018-Jun-13 10:26N 31°07' E 122°17'714.5
2018-Jun-13 09:59N 31°10' E 122°11'714.6
2018-Jun-13 09:29N 31°14' E 122°04'714.9
2018-Jun-13 09:00N 31°15' E 121°55'814.7
2018-Jun-13 08:28N 31°18' E 121°47'10 1.0
2018-Jun-12 22:22N 31°23' E 121°36'411.8
2018-Jun-12 22:00N 31°21' E 121°40'713.1
2018-Jun-12 21:30N 31°18' E 121°47'713.4
2018-Jun-12 20:58N 31°16' E 121°55'612.3
2018-Jun-12 20:30N 31°15' E 122°02'611.8
2018-Jun-12 20:00N 31°12' E 122°08'612.5
2018-Jun-12 19:30N 31°09' E 122°14'611.0
2018-Jun-12 19:00N 31°06' E 122°20'611.7
2018-Jun-12 18:28N 31°07' E 122°27'4 7.7
2018-Jun-12 17:59N 31°07' E 122°31'612.3
2018-Jun-12 17:30N 31°07' E 122°38'612.4
2018-Jun-12 17:00N 31°07' E 122°46'612.1
2018-Jun-12 16:30N 31°07' E 122°53'612.2
2018-Jun-12 15:59N 31°06' E 123°00'611.9
2018-Jun-12 15:30N 31°05' E 123°06'611.3
2018-Jun-12 15:00N 31°02' E 123°12'712.2
2018-Jun-12 14:25N 30°59' E 123°19'1012.7
2018-Jun-12 13:39N 30°52' E 123°28'  

Dump ship's entire track history